Mazatlan, Mexico

9:11 AM MST on February 06, 2016 (GMT -0700)
Centro | | Change Station
CLOSE
Current Station
Personal Weather Station
Location: Mazatlán, SINALOA
Elevation: 33 ft
Nearby Weather Stations

Elev 33 ft 23.19 °N, 106.42 °W | Updated 5 seconds ago

Mostly Cloudy
Mostly Cloudy
74.5 °F
Feels Like 77 °F
N
1.1
Wind Variable Wind from East
Gusts 2.5 mph

Today
High -- | Low -- °F
--% Chance of Precip.
Yesterday
High -- | Low -- °F
Precip. -- in
Pressure 30.02 in
Visibility 15.0 miles
Clouds Mostly Cloudy 23000 ft
Heat Index 77 °F
Dew Point 51 °F
Humidity 44%
Rainfall 0.00 in
Snow Depth Not available.
6:43 AM 5:56 PM
Waning Crescent, 5% visible
METAR MMMZ 061441Z 05004KT 15SM BKN230 14/11 A3002 RMK SLP166 52010 957 8/002
Pressure 30.02 in
Visibility 15.0 miles
Clouds Mostly Cloudy 23000 ft
Heat Index 77 °F
Dew Point 51 °F
Humidity 44%
Rainfall 0.00 in
Snow Depth Not available.
6:43 AM 5:56 PM
Waning Crescent, 5% visible
METAR MMMZ 061441Z 05004KT 15SM BKN230 14/11 A3002 RMK SLP166 52010 957 8/002

10-Day Weather Forecast

No radar image for this location.
×

Almanac

Astronomy

Feb. 06, 2016 Rise Set
Actual Time
Civil Twilight
Nautical Twilight
Astronomical Twilight
Moon
Length of Visible Light
Length of Day
Tomorrow will be .
, % of the Moon is Illuminated

Today's Extremes

Country Highs Country Lows

Community

WunderPhotos

Upload Photos

1,891,004 photos uploaded!

WunderBlog® & News

Nearby

Air Quality

  Air Quality AQ Index Pollutant
Not available.

Snow Depth

Station Depth Elevation

Earthquake Activity

City Distance Mag. Time & Date
Minimum magnitude displayed is 2.5.

Coastal Water Temperatures

Place Temperature

Stations

Nearby Weather Stations

Station Location Temp. Windchill Dew Point Humidity Wind Precip. Elev Updated Type